createdAt,value
2022-08-09T00:00:11.245Z,101187.98
2022-08-09T00:02:59.711Z,101185.47
2022-08-09T00:06:18.188Z,101184.94
2022-08-09T00:08:32.123Z,101186.70
2022-08-09T00:11:06.046Z,101188.89
2022-08-09T00:13:51.232Z,101187.88
2022-08-09T00:16:26.165Z,101191.99
2022-08-09T00:19:09.563Z,101189.78
2022-08-09T00:21:56.089Z,101191.94
2022-08-09T00:24:27.524Z,101192.51
2022-08-09T00:26:57.287Z,101191.53
2022-08-09T00:29:39.652Z,101189.11
2022-08-09T00:32:26.641Z,101193.02
2022-08-09T00:34:56.377Z,101191.88
2022-08-09T00:37:24.155Z,101194.92
2022-08-09T00:40:12.499Z,101195.20
2022-08-09T00:44:11.235Z,101201.26
2022-08-09T00:45:28.026Z,101201.03
2022-08-09T00:47:55.684Z,101202.63
2022-08-09T00:50:25.094Z,101206.73
2022-08-09T00:52:55.390Z,101209.23
2022-08-09T00:56:02.947Z,101204.67
2022-08-09T00:58:14.668Z,101207.50
2022-08-09T01:00:54.751Z,101207.52
2022-08-09T01:03:48.519Z,101209.12
2022-08-09T01:06:53.849Z,101210.26
2022-08-09T01:09:54.420Z,101208.52
2022-08-09T01:12:35.108Z,101206.40
2022-08-09T01:15:16.813Z,101206.11
2022-08-09T01:18:03.780Z,101203.45
2022-08-09T01:20:48.378Z,101203.65
2022-08-09T01:24:02.382Z,101199.88
2022-08-09T01:26:53.948Z,101200.68
2022-08-09T01:29:56.445Z,101202.02
2022-08-09T01:32:34.852Z,101200.99
2022-08-09T01:35:18.208Z,101194.95
2022-08-09T01:38:09.362Z,101191.09
2022-08-09T01:40:43.987Z,101182.42
2022-08-09T01:43:12.441Z,101183.13
2022-08-09T01:45:44.530Z,101183.91
2022-08-09T01:48:17.469Z,101188.35
2022-08-09T01:50:55.221Z,101193.08
2022-08-09T01:53:29.264Z,101197.95
2022-08-09T01:56:11.189Z,101201.11
2022-08-09T01:58:43.588Z,101207.85
2022-08-09T02:01:18.774Z,101205.30
2022-08-09T02:03:48.771Z,101205.70
2022-08-09T02:06:39.003Z,101209.99
2022-08-09T02:09:17.228Z,101212.51
2022-08-09T02:11:45.126Z,101212.52
2022-08-09T02:14:25.590Z,101206.70
2022-08-09T02:16:59.581Z,101206.86
2022-08-09T02:19:44.521Z,101206.70
2022-08-09T02:22:35.755Z,101206.17
2022-08-09T02:25:10.123Z,101203.79
2022-08-09T02:28:00.388Z,101199.45
2022-08-09T02:30:43.306Z,101201.08
2022-08-09T02:33:23.048Z,101200.77
2022-08-09T02:36:10.537Z,101201.69
2022-08-09T02:38:47.853Z,101201.00
2022-08-09T02:41:44.243Z,101200.48
2022-08-09T02:44:29.489Z,101200.73
2022-08-09T02:47:04.253Z,101203.59
2022-08-09T02:49:38.829Z,101202.77
2022-08-09T02:52:16.816Z,101204.80
2022-08-09T02:54:54.567Z,101205.75
2022-08-09T02:57:25.309Z,101206.35
2022-08-09T03:00:20.722Z,101206.61
2022-08-09T03:02:59.788Z,101205.92
2022-08-09T03:05:34.221Z,101206.63
2022-08-09T03:08:04.872Z,101209.83
2022-08-09T03:10:35.583Z,101212.23
2022-08-09T03:13:08.626Z,101216.95
2022-08-09T03:16:04.840Z,101218.82
2022-08-09T03:18:31.074Z,101214.35
2022-08-09T03:20:59.404Z,101216.65
2022-08-09T03:23:27.062Z,101214.55
2022-08-09T03:26:04.696Z,101216.52
2022-08-09T03:28:34.297Z,101216.91
2022-08-09T03:31:10.040Z,101216.95
2022-08-09T03:33:53.379Z,101214.77
2022-08-09T03:36:27.277Z,101216.60
2022-08-09T03:38:56.783Z,101215.63
2022-08-09T03:41:29.999Z,101213.03
2022-08-09T03:44:12.747Z,101211.98
2022-08-09T03:46:40.439Z,101210.23
2022-08-09T03:49:09.616Z,101215.81
2022-08-09T03:51:56.576Z,101213.11
2022-08-09T03:54:32.135Z,101213.04
2022-08-09T03:57:04.519Z,101215.40
2022-08-09T03:59:54.906Z,101213.20
2022-08-09T04:02:27.917Z,101213.66
2022-08-09T04:05:06.424Z,101214.95
2022-08-09T04:07:53.528Z,101215.24
2022-08-09T04:10:29.658Z,101216.88
2022-08-09T04:13:04.149Z,101219.30
2022-08-09T04:16:17.562Z,101225.27
2022-08-09T04:18:21.364Z,101221.73
2022-08-09T04:20:51.269Z,101221.98
2022-08-09T04:23:23.200Z,101227.02
2022-08-09T04:25:54.259Z,101225.86
2022-08-09T04:28:32.972Z,101227.73
2022-08-09T04:31:09.413Z,101229.56
2022-08-09T04:33:47.199Z,101232.67
2022-08-09T04:36:24.600Z,101233.14
2022-08-09T04:38:53.748Z,101233.82
2022-08-09T04:41:24.405Z,101237.19
2022-08-09T04:44:09.588Z,101239.64
2022-08-09T04:46:59.454Z,101240.16
2022-08-09T04:49:53.090Z,101241.58
2022-08-09T04:52:27.130Z,101246.25
2022-08-09T04:54:57.609Z,101245.09
2022-08-09T04:57:27.225Z,101246.66
2022-08-09T05:00:16.691Z,101247.52
2022-08-09T05:02:51.919Z,101248.45
2022-08-09T05:05:31.948Z,101249.63
2022-08-09T05:08:09.604Z,101249.15
2022-08-09T05:10:41.968Z,101253.30
2022-08-09T05:13:10.698Z,101253.41
2022-08-09T05:15:42.992Z,101252.11
2022-08-09T05:18:42.563Z,101253.22
2022-08-09T05:21:13.346Z,101249.73
2022-08-09T05:23:59.870Z,101251.79
2022-08-09T05:26:36.826Z,101250.35
2022-08-09T05:29:22.703Z,101255.71
2022-08-09T05:31:58.486Z,101259.11
2022-08-09T05:34:31.358Z,101255.48
2022-08-09T05:37:06.762Z,101258.74
2022-08-09T05:39:42.811Z,101258.87
2022-08-09T05:42:20.579Z,101263.38
2022-08-09T05:44:51.942Z,101262.60
2022-08-09T05:47:22.734Z,101263.92
2022-08-09T05:50:25.685Z,101260.05
2022-08-09T05:52:42.005Z,101257.64
2022-08-09T05:55:20.687Z,101260.33
2022-08-09T05:57:55.396Z,101264.24
2022-08-09T06:00:28.655Z,101262.42
2022-08-09T06:03:03.559Z,101260.39
2022-08-09T06:05:57.054Z,101262.80
2022-08-09T06:08:24.404Z,101270.53
2022-08-09T06:10:55.201Z,101271.16
2022-08-09T06:13:23.680Z,101273.89
2022-08-09T06:15:52.640Z,101270.50
2022-08-09T06:18:24.902Z,101276.40
2022-08-09T06:20:57.749Z,101276.65
2022-08-09T06:23:59.021Z,101280.21
2022-08-09T06:26:20.098Z,101280.80
2022-08-09T06:29:00.823Z,101283.27
2022-08-09T06:31:39.336Z,101285.02
2022-08-09T06:34:23.428Z,101286.46
2022-08-09T06:36:57.279Z,101291.42
2022-08-09T06:39:57.422Z,101294.27
2022-08-09T06:42:25.040Z,101297.96
2022-08-09T06:44:59.196Z,101299.60
2022-08-09T06:47:30.058Z,101300.90
2022-08-09T06:50:13.336Z,101302.16
2022-08-09T06:52:46.983Z,101304.82
2022-08-09T06:55:17.642Z,101305.25
2022-08-09T06:58:01.464Z,101307.98
2022-08-09T07:00:52.327Z,101312.24
2022-08-09T07:03:28.528Z,101311.36
2022-08-09T07:06:04.556Z,101313.73
2022-08-09T07:08:37.206Z,101309.73
2022-08-09T07:11:08.306Z,101313.20
2022-08-09T07:14:03.817Z,101313.47
2022-08-09T07:16:39.533Z,101316.80
2022-08-09T07:19:18.752Z,101318.62
2022-08-09T07:21:57.673Z,101323.13
2022-08-09T07:24:31.948Z,101324.80
2022-08-09T07:27:01.971Z,101323.35
2022-08-09T07:29:37.766Z,101326.33
2022-08-09T07:32:07.213Z,101328.52
2022-08-09T07:34:34.829Z,101331.75
2022-08-09T07:37:02.757Z,101332.40
2022-08-09T07:39:42.170Z,101333.01
2022-08-09T07:42:11.328Z,101331.96
2022-08-09T07:44:52.977Z,101336.16
2022-08-09T07:47:23.185Z,101333.27
2022-08-09T07:50:04.472Z,101337.71
2022-08-09T07:52:37.906Z,101337.69
2022-08-09T07:55:09.580Z,101337.56
2022-08-09T07:57:47.229Z,101338.45
2022-08-09T08:00:20.772Z,101339.74
2022-08-09T08:03:05.149Z,101340.13
2022-08-09T08:05:53.511Z,101338.16
2022-08-09T08:09:00.939Z,101331.92
2022-08-09T08:12:09.714Z,101332.73
2022-08-09T08:14:01.172Z,101332.45
2022-08-09T08:16:31.937Z,101335.81
2022-08-09T08:19:03.109Z,101335.70
2022-08-09T08:21:31.633Z,101333.38
2022-08-09T08:24:01.466Z,101338.81
2022-08-09T08:26:54.469Z,101343.26
2022-08-09T08:29:28.030Z,101347.77
2022-08-09T08:32:03.817Z,101348.64
2022-08-09T08:34:36.380Z,101349.06
2022-08-09T08:37:04.969Z,101348.30
2022-08-09T08:39:39.829Z,101348.98
2022-08-09T08:42:11.406Z,101349.14
2022-08-09T08:44:41.508Z,101352.36
2022-08-09T08:47:13.037Z,101352.16
2022-08-09T08:49:48.439Z,101355.72
2022-08-09T08:55:07.957Z,101354.42
2022-08-09T08:57:37.641Z,101356.72
2022-08-09T09:00:20.408Z,101356.35
2022-08-09T09:02:52.922Z,101358.99
2022-08-09T09:05:57.942Z,101359.15
2022-08-09T09:08:30.459Z,101359.17
2022-08-09T09:11:03.526Z,101359.20
2022-08-09T09:13:55.759Z,101359.95
2022-08-09T09:16:33.566Z,101358.20
2022-08-09T09:19:37.571Z,101362.16
2022-08-09T09:22:05.148Z,101361.84
2022-08-09T09:24:39.627Z,101361.98
2022-08-09T09:27:47.260Z,101359.47
2022-08-09T09:30:14.091Z,101363.40
2022-08-09T09:33:15.780Z,101364.29
2022-08-09T09:36:19.808Z,101363.40
2022-08-09T09:38:52.404Z,101364.02
2022-08-09T09:41:33.115Z,101368.27
2022-08-09T09:44:12.821Z,101364.53
2022-08-09T09:46:46.058Z,101366.98
2022-08-09T09:49:31.663Z,101370.54
2022-08-09T09:52:16.487Z,101367.29
2022-08-09T09:55:28.888Z,101366.36
2022-08-09T09:58:04.419Z,101360.38
2022-08-09T10:00:34.490Z,101358.23
2022-08-09T10:03:09.061Z,101357.46
2022-08-09T10:06:04.090Z,101354.33
2022-08-09T10:08:32.760Z,101352.11
2022-08-09T10:11:59.415Z,101352.29
2022-08-09T10:14:31.827Z,101348.30
2022-08-09T10:17:54.942Z,101349.15
2022-08-09T10:20:35.930Z,101344.20
2022-08-09T10:23:22.577Z,101342.90
2022-08-09T10:26:06.586Z,101347.00
2022-08-09T10:28:38.215Z,101345.72
2022-08-09T10:34:08.729Z,101340.24
2022-08-09T10:36:45.633Z,101337.44
2022-08-09T10:39:19.171Z,101332.30
2022-08-09T10:41:47.700Z,101333.19
2022-08-09T10:44:22.908Z,101329.64
2022-08-09T10:47:20.487Z,101328.40
2022-08-09T10:50:03.248Z,101323.23
2022-08-09T10:53:04.437Z,101320.26
2022-08-09T10:55:49.349Z,101315.71
2022-08-09T10:58:37.673Z,101317.13
2022-08-09T11:03:03.079Z,101313.73
2022-08-09T11:04:20.106Z,101309.08
2022-08-09T11:07:00.181Z,101310.96
2022-08-09T11:09:47.958Z,101306.95
2022-08-09T11:12:30.265Z,101310.28
2022-08-09T11:15:24.405Z,101308.77
2022-08-09T11:18:03.581Z,101316.20
2022-08-09T11:20:41.367Z,101316.39
2022-08-09T11:23:11.886Z,101315.30
2022-08-09T11:25:48.370Z,101315.27
2022-08-09T11:28:34.693Z,101312.84
2022-08-09T11:31:43.339Z,101304.50
2022-08-09T11:34:40.226Z,101308.17
2022-08-09T11:37:18.236Z,101303.34
2022-08-09T11:40:08.152Z,101301.05
2022-08-09T11:42:43.760Z,101302.23
2022-08-09T11:45:43.550Z,101306.96
2022-08-09T11:48:19.251Z,101301.90
2022-08-09T11:52:06.789Z,101301.05
2022-08-09T11:54:00.490Z,101299.61
2022-08-09T11:56:41.380Z,101297.86
2022-08-09T11:59:12.351Z,101289.75
2022-08-09T12:02:01.004Z,101290.95
2022-08-09T12:04:36.991Z,101290.33
2022-08-09T12:07:08.410Z,101288.27
2022-08-09T12:09:36.896Z,101285.30
2022-08-09T12:12:20.426Z,101284.49
2022-08-09T12:15:08.123Z,101281.88
2022-08-09T12:17:42.339Z,101277.19
2022-08-09T12:20:23.122Z,101269.84
2022-08-09T12:22:56.838Z,101273.46
2022-08-09T12:25:34.695Z,101274.42
2022-08-09T12:29:11.902Z,101270.14
2022-08-09T12:31:02.846Z,101264.84
2022-08-09T12:33:59.279Z,101262.77
2022-08-09T12:36:33.491Z,101260.68
2022-08-09T12:39:01.795Z,101262.13
2022-08-09T12:41:38.954Z,101263.27
2022-08-09T12:44:10.084Z,101260.84
2022-08-09T12:46:48.608Z,101256.80
2022-08-09T12:49:18.859Z,101259.19
2022-08-09T12:52:00.940Z,101258.43
2022-08-09T12:55:03.223Z,101253.39
2022-08-09T12:57:46.948Z,101250.95
2022-08-09T13:00:25.225Z,101247.85
2022-08-09T13:02:57.492Z,101245.50
2022-08-09T13:06:13.178Z,101245.16
2022-08-09T13:08:39.704Z,101243.54
2022-08-09T13:11:23.250Z,101242.69
2022-08-09T13:14:43.945Z,101238.38
2022-08-09T13:16:50.544Z,101239.45
2022-08-09T13:20:08.622Z,101237.58
2022-08-09T13:22:45.600Z,101239.77
2022-08-09T13:25:16.137Z,101236.84
2022-08-09T13:27:54.658Z,101235.63
2022-08-09T13:31:11.423Z,101235.79
2022-08-09T13:33:23.290Z,101227.98
2022-08-09T13:36:39.930Z,101229.04
2022-08-09T13:38:54.977Z,101222.25
2022-08-09T13:41:58.382Z,101220.36
2022-08-09T13:44:16.414Z,101217.23
2022-08-09T13:47:15.980Z,101219.96
2022-08-09T13:49:37.992Z,101219.14
2022-08-09T13:52:09.309Z,101218.66
2022-08-09T13:54:42.895Z,101219.39
2022-08-09T13:57:35.237Z,101218.39
2022-08-09T14:00:08.775Z,101219.64
2022-08-09T14:02:42.768Z,101214.07
2022-08-09T14:06:00.033Z,101217.73
2022-08-09T14:08:11.102Z,101217.10
2022-08-09T14:10:49.087Z,101215.43
2022-08-09T14:14:15.029Z,101215.79
2022-08-09T14:16:15.363Z,101217.20
2022-08-09T14:18:50.086Z,101219.23
2022-08-09T14:21:21.034Z,101215.39
2022-08-09T14:23:56.684Z,101222.41
2022-08-09T14:26:30.463Z,101219.98
2022-08-09T14:29:03.760Z,101219.80
2022-08-09T14:31:52.017Z,101217.22
2022-08-09T14:34:27.321Z,101212.66
2022-08-09T14:37:06.473Z,101210.39
2022-08-09T14:39:45.598Z,101207.70
2022-08-09T14:42:30.387Z,101210.89
2022-08-09T14:46:40.338Z,101207.79
2022-08-09T14:47:57.955Z,101199.05
2022-08-09T14:50:31.376Z,101199.34
2022-08-09T14:53:11.392Z,101195.81
2022-08-09T14:55:49.894Z,101194.83
2022-08-09T14:58:18.680Z,101197.31
2022-08-09T15:00:48.558Z,101204.14
2022-08-09T15:03:20.427Z,101196.83
2022-08-09T15:05:52.485Z,101195.80
2022-08-09T15:08:25.839Z,101202.16
2022-08-09T15:11:00.677Z,101200.98
2022-08-09T15:13:48.194Z,101202.75
2022-08-09T15:16:20.569Z,101204.57
2022-08-09T15:18:49.061Z,101202.10
2022-08-09T15:21:55.135Z,101201.46
2022-08-09T15:24:12.900Z,101201.61
2022-08-09T15:26:45.127Z,101205.61
2022-08-09T15:30:55.875Z,101206.48
2022-08-09T15:32:02.568Z,101210.53
2022-08-09T15:34:32.633Z,101208.34
2022-08-09T15:37:04.150Z,101208.38
2022-08-09T15:39:43.678Z,101206.06
2022-08-09T15:42:20.403Z,101212.86
2022-08-09T15:44:50.616Z,101216.05
2022-08-09T15:47:22.780Z,101216.97
2022-08-09T15:50:04.680Z,101211.90
2022-08-09T15:52:38.081Z,101211.45
2022-08-09T15:55:08.799Z,101214.62
2022-08-09T15:57:50.913Z,101217.31
2022-08-09T16:00:25.193Z,101214.70
2022-08-09T16:02:56.382Z,101218.26
2022-08-09T16:05:53.488Z,101219.14
2022-08-09T16:08:31.239Z,101219.83
2022-08-09T16:11:01.735Z,101223.45
2022-08-09T16:14:02.714Z,101223.91
2022-08-09T16:16:19.309Z,101225.29
2022-08-09T16:18:47.816Z,101225.25
2022-08-09T16:21:17.009Z,101228.58
2022-08-09T16:24:01.891Z,101226.23
2022-08-09T16:26:33.790Z,101226.63
2022-08-09T16:29:11.489Z,101225.90
2022-08-09T16:32:19.750Z,101228.52
2022-08-09T16:34:54.961Z,101227.92
2022-08-09T16:37:56.164Z,101224.80
2022-08-09T16:40:11.266Z,101223.86
2022-08-09T16:42:45.402Z,101222.69
2022-08-09T16:45:18.512Z,101220.08
2022-08-09T16:48:37.914Z,101221.73
2022-08-09T16:50:37.214Z,101222.55
2022-08-09T16:53:08.963Z,101224.77
2022-08-09T16:56:00.381Z,101216.38
2022-08-09T16:58:26.957Z,101215.45
2022-08-09T17:00:54.954Z,101214.44
2022-08-09T17:03:24.095Z,101213.48
2022-08-09T17:06:06.669Z,101214.65
2022-08-09T17:09:03.041Z,101213.50
2022-08-09T17:11:40.609Z,101212.04
2022-08-09T17:14:25.661Z,101213.70
2022-08-09T17:17:00.093Z,101213.23
2022-08-09T17:19:47.235Z,101216.38
2022-08-09T17:22:24.676Z,101219.88
2022-08-09T17:25:02.618Z,101219.01
2022-08-09T17:27:32.953Z,101221.55
2022-08-09T17:30:04.806Z,101223.10
2022-08-09T17:32:38.257Z,101218.64
2022-08-09T17:35:12.223Z,101218.65
2022-08-09T17:38:02.629Z,101218.87
2022-08-09T17:40:34.939Z,101217.58
2022-08-09T17:43:32.210Z,101221.42
2022-08-09T17:46:04.248Z,101217.95
2022-08-09T17:48:38.514Z,101219.55
2022-08-09T17:51:18.514Z,101220.94
2022-08-09T17:53:55.478Z,101224.55
2022-08-09T17:56:35.769Z,101228.41
2022-08-09T17:59:09.001Z,101230.67
2022-08-09T18:02:07.581Z,101237.31
2022-08-09T18:04:29.851Z,101234.62
2022-08-09T18:06:58.207Z,101237.14
2022-08-09T18:09:35.872Z,101234.70
2022-08-09T18:12:19.383Z,101238.46
2022-08-09T18:14:54.469Z,101243.16
2022-08-09T18:18:02.886Z,101240.84
2022-08-09T18:20:54.998Z,101247.29
2022-08-09T18:23:05.463Z,101246.55
2022-08-09T18:25:45.519Z,101246.02
2022-08-09T18:30:40.977Z,101246.98
2022-08-09T18:31:11.734Z,101248.61
2022-08-09T18:33:40.369Z,101252.17
2022-08-09T18:36:14.282Z,101259.11
2022-08-09T18:38:57.518Z,101263.28
2022-08-09T18:41:28.712Z,101261.99
2022-08-09T18:43:57.315Z,101273.89
2022-08-09T18:46:49.011Z,101276.10
2022-08-09T18:49:12.236Z,101278.09
2022-08-09T18:51:57.892Z,101277.52
2022-08-09T18:54:28.562Z,101279.14
2022-08-09T18:57:06.011Z,101280.86
2022-08-09T18:59:48.550Z,101279.13
2022-08-09T19:02:18.353Z,101281.61
2022-08-09T19:04:47.808Z,101283.60
2022-08-09T19:07:32.451Z,101285.71
2022-08-09T19:10:14.074Z,101289.14
2022-08-09T19:12:54.980Z,101283.71
2022-08-09T19:15:24.443Z,101282.56
2022-08-09T19:17:54.595Z,101281.16
2022-08-09T19:20:24.240Z,101279.63
2022-08-09T19:22:54.634Z,101285.99
2022-08-09T19:25:42.481Z,101285.69
2022-08-09T19:28:13.166Z,101288.10
2022-08-09T19:30:44.197Z,101285.56
2022-08-09T19:33:19.460Z,101288.66
2022-08-09T19:35:57.964Z,101289.35
2022-08-09T19:38:27.447Z,101298.05
2022-08-09T19:40:57.683Z,101295.19
2022-08-09T19:44:01.756Z,101297.26
2022-08-09T19:46:35.106Z,101298.83
2022-08-09T19:50:48.534Z,101298.27
2022-08-09T19:51:56.025Z,101301.46
2022-08-09T19:54:25.360Z,101303.25
2022-08-09T19:56:54.446Z,101304.29
2022-08-09T19:59:58.238Z,101304.74
2022-08-09T20:04:06.880Z,101305.78
2022-08-09T20:05:01.820Z,101307.11
2022-08-09T20:07:49.669Z,101309.48
2022-08-09T20:10:22.443Z,101307.25
2022-08-09T20:13:04.958Z,101308.23
2022-08-09T20:16:34.089Z,101305.03
2022-08-09T20:18:23.109Z,101304.25
2022-08-09T20:20:56.938Z,101305.55
2022-08-09T20:23:38.613Z,101307.70
2022-08-09T20:26:10.019Z,101305.69
2022-08-09T20:28:50.139Z,101307.00
2022-08-09T20:31:17.985Z,101310.02
2022-08-09T20:33:58.245Z,101311.05
2022-08-09T20:36:29.608Z,101309.61
2022-08-09T20:39:28.895Z,101306.60
2022-08-09T20:41:49.151Z,101304.68
2022-08-09T20:44:16.947Z,101305.91
2022-08-09T20:46:54.094Z,101304.66
2022-08-09T20:49:21.542Z,101307.86
2022-08-09T20:51:50.796Z,101305.92
2022-08-09T20:54:18.672Z,101312.45
2022-08-09T20:56:49.658Z,101312.60
2022-08-09T21:00:20.138Z,101314.32
2022-08-09T21:02:21.336Z,101317.11
2022-08-09T21:05:51.968Z,101319.05
2022-08-09T21:07:40.381Z,101318.52
2022-08-09T21:10:11.974Z,101319.37
2022-08-09T21:12:39.741Z,101319.80
2022-08-09T21:15:12.566Z,101321.02
2022-08-09T21:18:20.878Z,101323.86
2022-08-09T21:20:31.263Z,101326.18
2022-08-09T21:23:00.350Z,101325.35
2022-08-09T21:25:55.385Z,101329.16
2022-08-09T21:28:34.323Z,101329.02
2022-08-09T21:31:13.627Z,101329.69
2022-08-09T21:33:51.223Z,101331.24
2022-08-09T21:36:23.284Z,101329.41
2022-08-09T21:38:57.390Z,101326.64
2022-08-09T21:42:04.738Z,101329.30
2022-08-09T21:44:34.427Z,101327.55
2022-08-09T21:47:05.052Z,101329.48
2022-08-09T21:49:39.589Z,101327.90
2022-08-09T21:52:14.675Z,101331.27
2022-08-09T21:54:50.914Z,101336.65
2022-08-09T21:57:39.191Z,101335.03
2022-08-09T22:00:26.799Z,101333.14
2022-08-09T22:03:04.792Z,101327.51
2022-08-09T22:05:42.433Z,101330.94
2022-08-09T22:08:16.080Z,101329.34
2022-08-09T22:11:50.291Z,101330.52
2022-08-09T22:13:34.858Z,101331.34
2022-08-09T22:16:07.479Z,101332.02
2022-08-09T22:18:37.646Z,101332.30
2022-08-09T22:21:09.226Z,101331.55
2022-08-09T22:23:59.172Z,101329.90
2022-08-09T22:26:35.449Z,101329.83
2022-08-09T22:29:09.407Z,101330.80
2022-08-09T22:31:44.309Z,101333.49
2022-08-09T22:34:18.188Z,101327.82
2022-08-09T22:36:56.912Z,101326.04
2022-08-09T22:39:57.373Z,101319.56
2022-08-09T22:42:22.486Z,101323.05
2022-08-09T22:45:00.022Z,101323.54
2022-08-09T22:48:10.228Z,101324.98
2022-08-09T22:50:31.691Z,101323.04
2022-08-09T22:53:03.749Z,101327.33
2022-08-09T22:56:30.063Z,101327.80
2022-08-09T22:58:32.628Z,101328.46
2022-08-09T23:01:05.472Z,101328.13
2022-08-09T23:04:04.183Z,101328.84
2022-08-09T23:06:35.204Z,101332.20
2022-08-09T23:09:06.247Z,101334.11
2022-08-09T23:11:34.017Z,101331.77
2022-08-09T23:14:03.444Z,101332.07
2022-08-09T23:16:31.705Z,101332.77
2022-08-09T23:18:59.865Z,101330.77
2022-08-09T23:21:33.255Z,101333.16
2022-08-09T23:24:06.479Z,101332.05
2022-08-09T23:26:39.016Z,101331.86
2022-08-09T23:29:11.308Z,101332.17
2022-08-09T23:31:42.131Z,101337.77
2022-08-09T23:34:09.853Z,101337.95
2022-08-09T23:36:37.405Z,101339.36
2022-08-09T23:39:06.465Z,101337.71
2022-08-09T23:41:35.567Z,101337.55
2022-08-09T23:44:04.057Z,101336.04
2022-08-09T23:46:33.012Z,101331.48
2022-08-09T23:49:00.684Z,101328.34
2022-08-09T23:51:29.070Z,101329.27
2022-08-09T23:54:02.232Z,101328.97
2022-08-09T23:56:53.328Z,101326.95
2022-08-09T23:59:22.649Z,101325.15
